createdAt,value
2019-01-05T00:02:36.716Z,8.10
2019-01-05T00:05:27.577Z,8.63
2019-01-05T00:08:13.311Z,8.17
2019-01-05T00:10:58.984Z,8.40
2019-01-05T00:13:48.961Z,8.23
2019-01-05T00:16:36.044Z,8.17
2019-01-05T00:19:21.480Z,7.67
2019-01-05T00:22:08.366Z,7.63
2019-01-05T00:24:53.949Z,8.53
2019-01-05T00:27:42.672Z,9.03
2019-01-05T00:30:44.829Z,9.13
2019-01-05T00:33:33.506Z,9.00
2019-01-05T00:36:23.071Z,8.53
2019-01-05T00:39:26.183Z,8.00
2019-01-05T00:42:15.660Z,8.63
2019-01-05T00:45:02.260Z,7.93
2019-01-05T00:48:00.249Z,9.50
2019-01-05T00:51:03.075Z,9.93
2019-01-05T00:53:49.049Z,10.30
2019-01-05T00:56:35.209Z,10.00
2019-01-05T00:59:21.328Z,9.33
2019-01-05T01:02:26.544Z,8.57
2019-01-05T01:05:12.220Z,8.77
2019-01-05T01:07:57.760Z,9.23
2019-01-05T01:11:02.631Z,8.63
2019-01-05T01:13:55.581Z,8.70
2019-01-05T01:16:41.107Z,8.73
2019-01-05T01:19:36.677Z,8.53
2019-01-05T01:22:21.337Z,9.83
2019-01-05T01:25:05.900Z,10.03
2019-01-05T01:27:53.381Z,9.40
2019-01-05T01:30:47.292Z,9.27
2019-01-05T01:33:43.191Z,8.77
2019-01-05T01:36:20.386Z,9.57
2019-01-05T01:39:34.148Z,9.57
2019-01-05T01:42:21.587Z,9.37
2019-01-05T01:45:11.539Z,9.33
2019-01-05T01:48:01.413Z,9.30
2019-01-05T01:51:01.021Z,9.23
2019-01-05T01:53:59.551Z,9.27
2019-01-05T01:57:01.140Z,9.37
2019-01-05T02:00:23.306Z,9.43
2019-01-05T02:03:11.872Z,8.80
2019-01-05T02:06:02.776Z,9.23
2019-01-05T02:09:00.948Z,9.10
2019-01-05T02:11:50.191Z,8.13
2019-01-05T02:14:58.887Z,8.20
2019-01-05T02:18:16.884Z,8.47
2019-01-05T02:21:44.062Z,7.90
2019-01-05T02:25:06.079Z,7.40
2019-01-05T02:28:51.299Z,8.10
2019-01-05T02:32:19.583Z,7.70
2019-01-05T02:35:15.548Z,7.77
2019-01-05T02:38:38.370Z,7.37
2019-01-05T02:41:57.052Z,7.17
2019-01-05T02:45:41.736Z,7.13
2019-01-05T02:49:05.925Z,7.20
2019-01-05T02:52:36.691Z,7.23
2019-01-05T02:56:04.264Z,7.33
2019-01-05T02:59:40.868Z,7.10
2019-01-05T03:03:15.445Z,7.27
2019-01-05T03:06:53.851Z,7.23
2019-01-05T03:10:23.109Z,6.90
2019-01-05T03:13:38.980Z,7.43
2019-01-05T03:17:00.428Z,7.60
2019-01-05T03:20:45.040Z,6.77
2019-01-05T03:24:05.744Z,6.80
2019-01-05T03:27:29.435Z,7.43
2019-01-05T03:31:13.248Z,7.33
2019-01-05T03:34:59.951Z,7.13
2019-01-05T03:38:21.989Z,7.00
2019-01-05T03:41:57.013Z,7.30
2019-01-05T03:45:39.452Z,7.27
2019-01-05T03:49:02.033Z,7.43
2019-01-05T03:52:49.464Z,6.63
2019-01-05T03:55:57.008Z,7.97
2019-01-05T03:59:24.500Z,9.00
2019-01-05T04:03:17.591Z,8.03
2019-01-05T04:06:39.489Z,7.20
2019-01-05T04:10:12.988Z,6.73
2019-01-05T04:13:39.615Z,6.33
2019-01-05T04:17:17.848Z,6.23
2019-01-05T04:20:58.637Z,6.73
2019-01-05T04:24:21.685Z,6.90
2019-01-05T04:28:08.820Z,6.87
2019-01-05T04:31:45.476Z,6.40
2019-01-05T04:35:22.045Z,7.03
2019-01-05T04:38:53.796Z,6.43
2019-01-05T04:42:40.548Z,6.87
2019-01-05T04:46:26.804Z,6.90
2019-01-05T04:49:49.720Z,6.90
2019-01-05T04:53:04.916Z,7.07
2019-01-05T04:56:26.599Z,9.20
2019-01-05T04:59:55.499Z,13.50
2019-01-05T05:03:09.940Z,11.40
2019-01-05T05:06:50.981Z,7.10
2019-01-05T05:10:39.376Z,7.40
2019-01-05T05:14:21.931Z,7.70
2019-01-05T05:17:49.692Z,7.20
2019-01-05T05:21:50.655Z,7.73
2019-01-05T05:25:16.521Z,7.37
2019-01-05T05:28:30.445Z,8.07
2019-01-05T05:31:54.171Z,7.93
2019-01-05T05:35:20.235Z,7.57
2019-01-05T05:38:46.228Z,7.63
2019-01-05T05:42:16.432Z,6.73
2019-01-05T05:45:54.085Z,7.17
2019-01-05T05:49:09.064Z,7.70
2019-01-05T05:53:00.390Z,7.50
2019-01-05T05:56:45.252Z,7.40
2019-01-05T06:00:01.685Z,6.93
2019-01-05T06:03:24.320Z,7.43
2019-01-05T06:06:37.932Z,7.07
2019-01-05T06:10:13.387Z,7.27
2019-01-05T06:13:42.267Z,16.07
2019-01-05T06:17:10.656Z,12.27
2019-01-05T06:20:44.127Z,9.30
2019-01-05T06:24:05.828Z,8.70
2019-01-05T06:27:45.010Z,7.93
2019-01-05T06:31:15.281Z,8.10
2019-01-05T06:34:15.873Z,7.73
2019-01-05T06:37:49.470Z,7.67
2019-01-05T06:41:24.888Z,8.07
2019-01-05T06:45:05.355Z,7.97
2019-01-05T06:48:43.336Z,8.70
2019-01-05T06:52:54.412Z,8.53
2019-01-05T06:56:27.543Z,8.07
2019-01-05T06:59:59.780Z,8.73
2019-01-05T07:03:27.612Z,8.57
2019-01-05T07:07:08.274Z,9.27
2019-01-05T07:10:50.607Z,9.90
2019-01-05T07:14:31.692Z,10.83
2019-01-05T07:17:44.591Z,10.60
2019-01-05T07:21:12.260Z,10.70
2019-01-05T07:24:34.466Z,10.87
2019-01-05T07:28:03.531Z,12.13
2019-01-05T07:31:42.128Z,13.63
2019-01-05T07:34:54.111Z,14.33
2019-01-05T07:38:32.144Z,14.80
2019-01-05T07:42:09.958Z,13.30
2019-01-05T07:45:27.870Z,15.00
2019-01-05T07:49:03.415Z,14.10
2019-01-05T07:52:26.428Z,12.57
2019-01-05T07:55:39.995Z,11.30
2019-01-05T07:59:04.533Z,12.23
2019-01-05T08:02:45.015Z,14.27
2019-01-05T08:06:11.720Z,14.13
2019-01-05T08:09:46.160Z,14.40
2019-01-05T08:13:25.144Z,13.37
2019-01-05T08:16:47.040Z,14.23
2019-01-05T08:20:09.335Z,13.50
2019-01-05T08:23:48.613Z,14.80
2019-01-05T08:27:24.984Z,15.90
2019-01-05T08:30:43.975Z,14.53
2019-01-05T08:34:14.192Z,14.03
2019-01-05T08:37:53.080Z,14.80
2019-01-05T08:41:35.392Z,13.90
2019-01-05T08:45:17.393Z,11.20
2019-01-05T08:48:36.519Z,12.63
2019-01-05T08:51:56.873Z,10.90
2019-01-05T08:55:17.296Z,10.87
2019-01-05T08:58:57.279Z,11.17
2019-01-05T09:02:36.382Z,12.83
2019-01-05T09:06:22.020Z,12.37
2019-01-05T09:09:52.996Z,12.77
2019-01-05T09:13:24.724Z,12.17
2019-01-05T09:16:53.256Z,12.30
2019-01-05T09:19:57.648Z,12.33
2019-01-05T09:23:32.324Z,12.63
2019-01-05T09:27:11.119Z,12.60
2019-01-05T09:30:47.528Z,14.17
2019-01-05T09:34:26.674Z,13.30
2019-01-05T09:38:00.140Z,15.10
2019-01-05T09:41:33.956Z,14.03
2019-01-05T09:45:02.160Z,14.07
2019-01-05T09:48:52.102Z,14.23
2019-01-05T09:52:22.584Z,13.07
2019-01-05T09:55:58.356Z,14.13
2019-01-05T09:59:27.349Z,13.97
2019-01-05T10:03:01.483Z,14.63
2019-01-05T10:06:17.976Z,14.57
2019-01-05T10:09:48.092Z,15.13
2019-01-05T10:13:14.471Z,14.60
2019-01-05T10:16:57.172Z,13.80
2019-01-05T10:20:22.557Z,11.53
2019-01-05T10:23:48.588Z,12.70
2019-01-05T10:27:26.596Z,13.13
2019-01-05T10:31:12.227Z,11.97
2019-01-05T10:34:33.668Z,13.10
2019-01-05T10:38:10.349Z,12.60
2019-01-05T10:41:32.251Z,12.07
2019-01-05T10:44:44.640Z,11.60
2019-01-05T10:48:09.579Z,11.23
2019-01-05T10:51:38.780Z,11.50
2019-01-05T10:55:03.435Z,12.23
2019-01-05T10:58:46.812Z,11.97
2019-01-05T11:02:39.456Z,12.07
2019-01-05T11:05:45.043Z,12.03
2019-01-05T11:09:11.219Z,13.00
2019-01-05T11:12:38.816Z,12.03
2019-01-05T11:16:14.353Z,11.40
2019-01-05T11:19:27.768Z,11.30
2019-01-05T11:22:49.062Z,12.93
2019-01-05T11:26:07.977Z,12.83
2019-01-05T11:29:58.972Z,11.87
2019-01-05T11:33:18.871Z,11.83
2019-01-05T11:37:11.273Z,10.30
2019-01-05T11:40:50.325Z,10.20
2019-01-05T11:44:19.646Z,10.97
2019-01-05T11:48:04.888Z,11.90
2019-01-05T11:51:43.055Z,10.07
2019-01-05T11:55:24.462Z,10.57
2019-01-05T11:58:52.768Z,12.17
2019-01-05T12:02:23.968Z,11.87
2019-01-05T12:05:45.287Z,13.30
2019-01-05T12:09:12.248Z,12.00
2019-01-05T12:12:52.015Z,12.33
2019-01-05T12:16:25.683Z,12.23
2019-01-05T12:20:00.638Z,13.77
2019-01-05T12:23:29.240Z,12.00
2019-01-05T12:27:19.270Z,12.60
2019-01-05T12:31:02.758Z,13.47
2019-01-05T12:34:16.944Z,12.60
2019-01-05T12:37:55.255Z,13.23
2019-01-05T12:41:33.548Z,13.43
2019-01-05T12:45:08.927Z,12.67
2019-01-05T12:48:51.112Z,11.87
2019-01-05T12:52:36.311Z,12.90
2019-01-05T12:56:08.097Z,12.33
2019-01-05T12:59:34.274Z,12.97
2019-01-05T13:03:16.644Z,12.40
2019-01-05T13:06:50.892Z,12.20
2019-01-05T13:10:14.007Z,12.70
2019-01-05T13:13:57.668Z,12.93
2019-01-05T13:17:22.836Z,11.30
2019-01-05T13:20:51.927Z,12.00
2019-01-05T13:24:18.979Z,11.57
2019-01-05T13:27:56.228Z,11.50
2019-01-05T13:31:22.008Z,10.77
2019-01-05T13:35:15.312Z,10.17
2019-01-05T13:38:26.170Z,8.20
2019-01-05T13:41:58.204Z,8.23
2019-01-05T13:45:30.836Z,7.43
2019-01-05T13:49:01.312Z,8.73
2019-01-05T13:52:25.092Z,10.73
2019-01-05T13:55:11.089Z,11.37
2019-01-05T13:58:04.401Z,10.73
2019-01-05T14:01:06.214Z,10.83
2019-01-05T14:04:11.260Z,11.30
2019-01-05T14:07:13.404Z,11.70
2019-01-05T14:10:00.579Z,10.60
2019-01-05T14:12:45.971Z,11.03
2019-01-05T14:15:31.561Z,11.03
2019-01-05T14:18:28.696Z,12.23
2019-01-05T14:21:13.560Z,13.23
2019-01-05T14:23:58.920Z,15.00
2019-01-05T14:26:58.116Z,12.83
2019-01-05T14:30:03.508Z,11.90
2019-01-05T14:32:58.796Z,12.60
2019-01-05T14:35:44.204Z,14.43
2019-01-05T14:38:29.548Z,12.87
2019-01-05T14:41:15.289Z,13.67
2019-01-05T14:44:01.039Z,13.27
2019-01-05T14:47:00.239Z,13.83
2019-01-05T14:49:45.576Z,15.50
2019-01-05T14:52:42.452Z,16.37
2019-01-05T14:55:29.652Z,16.63
2019-01-05T14:58:31.798Z,18.00
2019-01-05T15:01:30.663Z,17.40
2019-01-05T15:04:26.597Z,19.03
2019-01-05T15:07:19.571Z,14.90
2019-01-05T15:10:12.716Z,14.47
2019-01-05T15:13:05.714Z,15.27
2019-01-05T15:15:50.305Z,17.13
2019-01-05T15:18:35.938Z,17.07
2019-01-05T15:21:32.684Z,14.13
2019-01-05T15:24:22.852Z,13.77
2019-01-05T15:27:21.836Z,13.03
2019-01-05T15:30:12.699Z,12.27
2019-01-05T15:33:14.968Z,13.17
2019-01-05T15:36:04.704Z,12.43
2019-01-05T15:38:51.768Z,13.67
2019-01-05T15:41:38.872Z,12.53
2019-01-05T15:44:28.853Z,11.00
2019-01-05T15:47:24.935Z,13.43
2019-01-05T15:50:10.735Z,13.10
2019-01-05T15:53:10.092Z,13.73
2019-01-05T15:55:56.300Z,14.13
2019-01-05T15:58:41.600Z,14.67
2019-01-05T16:01:33.226Z,15.13
2019-01-05T16:04:29.379Z,14.67
2019-01-05T16:07:22.387Z,12.97
2019-01-05T16:10:07.720Z,13.13
2019-01-05T16:12:53.561Z,13.57
2019-01-05T16:15:52.722Z,14.10
2019-01-05T16:18:48.827Z,15.73
2019-01-05T16:21:35.460Z,16.10
2019-01-05T16:24:21.292Z,16.07
2019-01-05T16:27:17.561Z,17.60
2019-01-05T16:30:07.894Z,17.50
2019-01-05T16:32:57.675Z,19.43
2019-01-05T16:35:37.579Z,19.50
2019-01-05T16:38:23.019Z,20.97
2019-01-05T16:41:00.896Z,20.63
2019-01-05T16:43:51.093Z,21.87
2019-01-05T16:46:40.196Z,21.77
2019-01-05T16:49:36.305Z,20.47
2019-01-05T16:52:29.028Z,20.20
2019-01-05T16:55:15.986Z,19.47
2019-01-05T16:58:08.886Z,20.07
2019-01-05T17:00:58.711Z,18.80
2019-01-05T17:03:54.531Z,20.37
2019-01-05T17:06:40.163Z,16.50
2019-01-05T17:09:18.342Z,18.77
2019-01-05T17:12:03.711Z,19.47
2019-01-05T17:14:42.887Z,19.40
2019-01-05T17:17:36.020Z,17.90
2019-01-05T17:20:16.600Z,17.10
2019-01-05T17:23:02.037Z,18.17
2019-01-05T17:25:49.058Z,21.17
2019-01-05T17:28:38.871Z,19.40
2019-01-05T17:31:34.909Z,20.90
2019-01-05T17:34:20.243Z,22.23
2019-01-05T17:37:22.496Z,23.80
2019-01-05T17:40:11.526Z,21.47
2019-01-05T17:43:04.393Z,22.60
2019-01-05T17:46:00.934Z,21.67
2019-01-05T17:48:59.967Z,21.77
2019-01-05T17:51:55.801Z,22.37
2019-01-05T17:54:54.104Z,22.07
2019-01-05T17:57:39.856Z,23.53
2019-01-05T18:00:42.096Z,21.43
2019-01-05T18:03:34.871Z,21.77
2019-01-05T18:06:20.323Z,20.90
2019-01-05T18:08:57.808Z,23.23
2019-01-05T18:11:47.817Z,22.80
2019-01-05T18:14:34.923Z,23.63
2019-01-05T18:17:37.080Z,23.57
2019-01-05T18:20:22.779Z,23.63
2019-01-05T18:23:09.899Z,23.03
2019-01-05T18:26:02.805Z,22.53
2019-01-05T18:28:48.161Z,23.20
2019-01-05T18:31:50.224Z,24.10
2019-01-05T18:34:49.366Z,25.40
2019-01-05T18:37:33.564Z,30.27
2019-01-05T18:40:35.732Z,27.40
2019-01-05T18:43:20.366Z,26.90
2019-01-05T18:46:13.112Z,23.70
2019-01-05T18:49:14.987Z,26.97
2019-01-05T18:52:04.869Z,26.60
2019-01-05T18:54:50.286Z,27.37
2019-01-05T18:57:35.947Z,28.67
2019-01-05T19:00:36.784Z,28.40
2019-01-05T19:03:26.501Z,27.83
2019-01-05T19:06:12.262Z,26.30
2019-01-05T19:08:58.105Z,25.90
2019-01-05T19:11:36.290Z,24.87
2019-01-05T19:14:21.819Z,25.80
2019-01-05T19:17:23.968Z,24.97
2019-01-05T19:20:19.748Z,27.97
2019-01-05T19:23:06.807Z,25.13
2019-01-05T19:25:52.548Z,25.47
2019-01-05T19:28:42.664Z,24.23
2019-01-05T19:31:28.152Z,26.10
2019-01-05T19:34:13.804Z,26.13
2019-01-05T19:36:59.398Z,27.00
2019-01-05T19:39:46.444Z,27.03
2019-01-05T19:42:47.920Z,25.90
2019-01-05T19:45:32.299Z,20.23
2019-01-05T19:48:31.461Z,21.70
2019-01-05T19:51:17.880Z,24.07
2019-01-05T19:54:03.562Z,21.17
2019-01-05T19:57:13.118Z,22.27
2019-01-05T20:00:12.100Z,22.87
2019-01-05T20:03:01.943Z,24.23
2019-01-05T20:05:48.986Z,21.30
2019-01-05T20:08:34.790Z,21.30
2019-01-05T20:11:22.999Z,22.43
2019-01-05T20:14:08.712Z,22.70
2019-01-05T20:17:14.016Z,24.20
2019-01-05T20:20:07.260Z,24.47
2019-01-05T20:22:57.390Z,22.97
2019-01-05T20:25:41.823Z,21.83
2019-01-05T20:28:27.622Z,23.13
2019-01-05T20:31:12.621Z,24.30
2019-01-05T20:34:05.364Z,23.27
2019-01-05T20:37:01.308Z,23.37
2019-01-05T20:39:48.357Z,23.50
2019-01-05T20:42:41.385Z,23.53
2019-01-05T20:45:27.068Z,22.73
2019-01-05T20:48:32.378Z,23.80
2019-01-05T20:51:22.396Z,25.57
2019-01-05T20:54:12.572Z,28.17
2019-01-05T20:56:59.699Z,26.70
2019-01-05T20:59:49.784Z,26.73
2019-01-05T21:02:54.800Z,25.57
2019-01-05T21:05:47.576Z,24.60
2019-01-05T21:08:34.919Z,22.17
2019-01-05T21:11:20.442Z,22.87
2019-01-05T21:14:16.724Z,23.07
2019-01-05T21:17:18.663Z,23.67
2019-01-05T21:20:05.696Z,23.07
2019-01-05T21:22:52.794Z,23.83
2019-01-05T21:25:52.009Z,23.43
2019-01-05T21:28:47.775Z,23.80
2019-01-05T21:31:33.360Z,23.77
2019-01-05T21:34:26.320Z,24.20
2019-01-05T21:37:16.412Z,23.63
2019-01-05T21:40:15.433Z,25.20
2019-01-05T21:43:00.752Z,22.07
2019-01-05T21:45:46.417Z,22.20
2019-01-05T21:48:26.766Z,23.10
2019-01-05T21:51:11.045Z,25.90
2019-01-05T21:53:56.423Z,24.97
2019-01-05T21:56:52.545Z,22.97
2019-01-05T21:59:48.532Z,24.67
2019-01-05T22:02:43.253Z,25.00
2019-01-05T22:05:22.421Z,23.13
2019-01-05T22:08:18.147Z,22.20
2019-01-05T22:11:08.524Z,20.80
2019-01-05T22:13:54.181Z,18.47
2019-01-05T22:16:40.451Z,18.83
2019-01-05T22:19:27.508Z,18.07
2019-01-05T22:22:23.290Z,17.20
2019-01-05T22:25:28.451Z,16.90
2019-01-05T22:28:30.528Z,16.17
2019-01-05T22:31:16.293Z,15.33
2019-01-05T22:34:12.252Z,15.57
2019-01-05T22:36:58.924Z,15.87
2019-01-05T22:39:46.023Z,15.17
2019-01-05T22:42:33.204Z,14.63
2019-01-05T22:45:26.252Z,15.20
2019-01-05T22:48:15.444Z,15.77
2019-01-05T22:51:01.293Z,20.40
2019-01-05T22:53:42.412Z,17.17
2019-01-05T22:56:38.260Z,19.70
2019-01-05T22:59:37.115Z,18.23
2019-01-05T23:02:32.476Z,15.23
2019-01-05T23:05:19.740Z,15.27
2019-01-05T23:08:09.436Z,15.57
2019-01-05T23:10:55.130Z,15.90
2019-01-05T23:13:48.232Z,16.53
2019-01-05T23:16:33.907Z,15.70
2019-01-05T23:19:10.080Z,14.20
2019-01-05T23:22:06.165Z,15.13
2019-01-05T23:25:06.769Z,15.63
2019-01-05T23:27:52.098Z,23.23
2019-01-05T23:30:37.916Z,22.53
2019-01-05T23:33:34.092Z,20.77
2019-01-05T23:36:30.229Z,16.50
2019-01-05T23:39:25.840Z,14.37
2019-01-05T23:42:18.837Z,12.80
2019-01-05T23:45:01.548Z,13.70
2019-01-05T23:47:47.129Z,13.03
2019-01-05T23:50:32.906Z,14.20
2019-01-05T23:53:21.140Z,13.37
2019-01-05T23:56:14.208Z,11.07
2019-01-05T23:58:59.900Z,11.83
